createdAt,value
2022-09-06T00:02:17.789Z,15.67
2022-09-06T00:05:06.104Z,15.61
2022-09-06T00:07:53.125Z,15.58
2022-09-06T00:10:40.370Z,15.67
2022-09-06T00:13:27.345Z,15.84
2022-09-06T00:16:19.832Z,15.76
2022-09-06T00:19:06.788Z,15.52
2022-09-06T00:21:53.686Z,15.07
2022-09-06T00:24:40.735Z,15.00
2022-09-06T00:27:28.524Z,15.18
2022-09-06T00:30:15.497Z,15.11
2022-09-06T00:33:02.627Z,15.04
2022-09-06T00:35:50.188Z,15.10
2022-09-06T00:38:38.084Z,15.41
2022-09-06T00:41:25.319Z,15.12
2022-09-06T00:44:12.408Z,14.50
2022-09-06T00:46:59.347Z,14.22
2022-09-06T00:49:49.624Z,13.94
2022-09-06T00:52:37.924Z,14.20
2022-09-06T00:55:26.306Z,14.01
2022-09-06T00:58:13.644Z,13.94
2022-09-06T01:01:01.302Z,14.23
2022-09-06T01:03:48.601Z,14.30
2022-09-06T01:06:57.400Z,14.48
2022-09-06T01:10:05.989Z,14.45
2022-09-06T01:13:08.049Z,15.03
2022-09-06T01:16:32.193Z,14.73
2022-09-06T01:19:40.811Z,14.38
2022-09-06T01:22:27.800Z,14.51
2022-09-06T01:25:43.071Z,14.91
2022-09-06T01:28:32.173Z,15.12
2022-09-06T01:31:44.575Z,15.19
2022-09-06T01:34:48.050Z,14.97
2022-09-06T01:37:35.303Z,14.96
2022-09-06T01:40:22.349Z,14.85
2022-09-06T01:43:12.990Z,14.69
2022-09-06T01:46:05.727Z,14.60
2022-09-06T01:48:52.698Z,14.72
2022-09-06T01:52:07.621Z,14.92
2022-09-06T01:55:11.455Z,14.69
2022-09-06T01:58:36.841Z,14.93
2022-09-06T02:01:37.887Z,14.82
2022-09-06T02:04:40.979Z,14.60
2022-09-06T02:07:31.865Z,14.31
2022-09-06T02:10:27.319Z,14.58
2022-09-06T02:13:17.351Z,14.97
2022-09-06T02:16:07.612Z,14.52
2022-09-06T02:19:00.504Z,14.67
2022-09-06T02:21:51.775Z,14.62
2022-09-06T02:24:42.469Z,14.46
2022-09-06T02:27:31.123Z,14.80
2022-09-06T02:30:18.745Z,14.74
2022-09-06T02:33:16.058Z,14.90
2022-09-06T02:36:08.123Z,14.91
2022-09-06T02:38:55.201Z,15.09
2022-09-06T02:41:45.600Z,15.11
2022-09-06T02:44:32.948Z,14.81
2022-09-06T02:47:19.882Z,15.06
2022-09-06T02:50:08.325Z,14.85
2022-09-06T02:53:04.311Z,14.63
2022-09-06T02:55:51.393Z,14.93
2022-09-06T02:58:38.489Z,15.20
2022-09-06T03:01:25.621Z,15.07
2022-09-06T03:04:12.588Z,14.72
2022-09-06T03:06:59.530Z,14.56
2022-09-06T03:09:46.557Z,14.53
2022-09-06T03:12:33.533Z,14.49
2022-09-06T03:15:21.113Z,14.35
2022-09-06T03:18:08.069Z,14.28
2022-09-06T03:20:56.299Z,14.56
2022-09-06T03:23:43.306Z,14.61
2022-09-06T03:26:30.739Z,14.54
2022-09-06T03:29:17.821Z,14.40
2022-09-06T03:32:04.915Z,14.48
2022-09-06T03:34:51.945Z,14.34
2022-09-06T03:37:38.860Z,14.32
2022-09-06T03:40:26.356Z,14.33
2022-09-06T03:43:14.001Z,14.35
2022-09-06T03:46:01.014Z,14.31
2022-09-06T03:48:48.122Z,14.63
2022-09-06T03:51:35.084Z,14.41
2022-09-06T03:54:22.071Z,14.74
2022-09-06T03:57:09.947Z,14.92
2022-09-06T03:59:56.933Z,14.76
2022-09-06T04:02:43.915Z,14.37
2022-09-06T04:05:30.989Z,14.18
2022-09-06T04:08:17.889Z,14.01
2022-09-06T04:11:05.997Z,14.26
2022-09-06T04:13:53.040Z,14.65
2022-09-06T04:16:40.133Z,15.01
2022-09-06T04:19:27.187Z,14.93
2022-09-06T04:22:14.097Z,15.05
2022-09-06T04:25:01.527Z,15.14
2022-09-06T04:27:49.201Z,15.10
2022-09-06T04:30:36.250Z,14.55
2022-09-06T04:33:27.305Z,14.39
2022-09-06T04:36:14.374Z,14.51
2022-09-06T04:39:01.449Z,14.96
2022-09-06T04:41:48.506Z,15.17
2022-09-06T04:44:35.626Z,15.09
2022-09-06T04:47:23.085Z,15.00
2022-09-06T04:50:10.231Z,14.57
2022-09-06T04:52:57.170Z,14.14
2022-09-06T04:55:44.248Z,14.32
2022-09-06T04:58:31.261Z,14.31
2022-09-06T05:01:18.795Z,14.20
2022-09-06T05:04:08.982Z,13.91
2022-09-06T05:07:05.800Z,14.29
2022-09-06T05:09:52.916Z,14.93
2022-09-06T05:12:44.168Z,15.47
2022-09-06T05:15:31.395Z,15.89
2022-09-06T05:18:18.376Z,15.28
2022-09-06T05:21:05.725Z,15.49
2022-09-06T05:23:56.681Z,15.27
2022-09-06T05:26:45.649Z,15.28
2022-09-06T05:29:32.691Z,15.43
2022-09-06T05:32:19.822Z,15.62
2022-09-06T05:35:07.027Z,15.72
2022-09-06T05:37:54.006Z,15.25
2022-09-06T05:40:41.196Z,15.62
2022-09-06T05:43:28.220Z,15.60
2022-09-06T05:46:16.230Z,16.18
2022-09-06T05:49:08.055Z,16.36
2022-09-06T05:51:55.052Z,15.83
2022-09-06T05:54:41.991Z,15.59
2022-09-06T05:57:28.969Z,15.34
2022-09-06T06:00:15.993Z,15.40
2022-09-06T06:03:02.912Z,15.77
2022-09-06T06:05:49.944Z,15.81
2022-09-06T06:08:37.167Z,15.72
2022-09-06T06:11:26.019Z,15.66
2022-09-06T06:14:13.101Z,15.83
2022-09-06T06:17:00.392Z,15.97
2022-09-06T06:19:47.664Z,16.07
2022-09-06T06:22:34.653Z,16.27
2022-09-06T06:25:26.226Z,16.12
2022-09-06T06:28:13.303Z,16.16
2022-09-06T06:31:00.252Z,16.34
2022-09-06T06:33:47.199Z,16.56
2022-09-06T06:36:36.030Z,17.55
2022-09-06T06:39:23.272Z,19.04
2022-09-06T06:42:10.341Z,19.32
2022-09-06T06:44:57.382Z,21.26
2022-09-06T06:47:44.393Z,20.20
2022-09-06T06:50:31.433Z,21.21
2022-09-06T06:53:19.502Z,20.78
2022-09-06T06:56:32.258Z,21.92
2022-09-06T06:59:19.322Z,21.67
2022-09-06T07:02:07.355Z,22.24
2022-09-06T07:04:54.437Z,20.89
2022-09-06T07:07:41.673Z,22.13
2022-09-06T07:13:19.146Z,20.56
2022-09-06T07:16:07.033Z,20.22
2022-09-06T07:18:55.084Z,19.97
2022-09-06T07:21:42.022Z,20.17
2022-09-06T07:24:28.973Z,20.16
2022-09-06T07:30:22.891Z,22.92
2022-09-06T07:33:09.892Z,24.03
2022-09-06T07:36:02.025Z,25.80
2022-09-06T07:38:50.394Z,26.65
2022-09-06T07:41:37.359Z,24.84
2022-09-06T07:44:24.429Z,23.84
2022-09-06T07:53:31.077Z,23.39
2022-09-06T07:56:21.775Z,23.35
2022-09-06T07:59:09.427Z,21.78
2022-09-06T08:01:56.464Z,21.89
2022-09-06T08:04:47.561Z,22.50
2022-09-06T08:10:24.896Z,22.16
2022-09-06T08:13:11.869Z,23.20
2022-09-06T08:16:09.899Z,23.74
2022-09-06T08:18:58.956Z,24.58
2022-09-06T08:21:45.902Z,24.66
2022-09-06T08:24:35.826Z,23.76
2022-09-06T08:27:23.032Z,23.74
2022-09-06T08:30:10.697Z,25.22
2022-09-06T08:32:57.647Z,24.31
2022-09-06T08:35:54.972Z,22.95
2022-09-06T08:38:42.139Z,23.45
2022-09-06T08:42:01.419Z,24.51
2022-09-06T08:47:41.326Z,25.27
2022-09-06T08:50:29.408Z,24.43
2022-09-06T08:53:23.392Z,26.31
2022-09-06T08:56:28.648Z,25.62
2022-09-06T08:59:17.741Z,23.56
2022-09-06T09:02:17.445Z,23.45
2022-09-06T09:05:06.668Z,23.75
2022-09-06T09:08:05.458Z,23.36
2022-09-06T09:10:59.706Z,23.90
2022-09-06T09:13:59.407Z,23.94
2022-09-06T09:16:50.939Z,25.06
2022-09-06T09:19:41.452Z,25.77
2022-09-06T09:22:28.535Z,28.20
2022-09-06T09:25:22.621Z,26.65
2022-09-06T09:28:23.444Z,25.93
2022-09-06T09:31:10.601Z,26.59
2022-09-06T09:33:58.163Z,26.27
2022-09-06T09:39:58.082Z,27.15
2022-09-06T09:42:45.190Z,28.76
2022-09-06T09:45:32.199Z,27.40
2022-09-06T09:48:25.262Z,26.74
2022-09-06T09:51:27.334Z,29.15
2022-09-06T09:54:31.495Z,30.70
2022-09-06T09:57:19.707Z,28.36
2022-09-06T10:00:13.172Z,27.81
2022-09-06T10:03:01.143Z,28.06
2022-09-06T10:06:02.475Z,25.85
2022-09-06T10:08:50.410Z,25.92
2022-09-06T10:11:50.116Z,25.87
2022-09-06T10:14:44.236Z,26.04
2022-09-06T10:17:34.360Z,26.55
2022-09-06T10:20:25.117Z,29.34
2022-09-06T10:26:59.200Z,30.67
2022-09-06T10:30:01.549Z,30.73
2022-09-06T10:33:03.315Z,30.14
2022-09-06T10:35:50.332Z,29.41
2022-09-06T10:39:04.042Z,28.26
2022-09-06T10:42:20.851Z,30.08
2022-09-06T10:45:33.044Z,29.08
2022-09-06T10:48:24.429Z,29.07
2022-09-06T10:51:30.041Z,26.95
2022-09-06T10:54:24.966Z,27.13
2022-09-06T11:00:27.262Z,28.74
2022-09-06T11:06:49.784Z,28.14
2022-09-06T11:09:50.637Z,27.46
2022-09-06T11:12:37.557Z,27.18
2022-09-06T11:15:30.096Z,29.04
2022-09-06T11:18:24.556Z,27.78
2022-09-06T11:21:18.797Z,28.75
2022-09-06T11:24:15.283Z,28.02
2022-09-06T11:27:16.873Z,26.80
2022-09-06T11:30:06.112Z,27.67
2022-09-06T11:33:35.523Z,27.82
2022-09-06T11:36:36.766Z,27.58
2022-09-06T11:42:44.286Z,27.93
2022-09-06T11:45:47.779Z,28.52
2022-09-06T11:48:48.736Z,29.43
2022-09-06T11:51:40.928Z,29.78
2022-09-06T11:54:47.413Z,29.21
2022-09-06T11:57:34.475Z,29.15
2022-09-06T12:00:24.425Z,28.11
2022-09-06T12:07:12.311Z,27.80
2022-09-06T12:10:23.069Z,28.30
2022-09-06T12:13:47.135Z,26.89
2022-09-06T12:16:55.732Z,26.17
2022-09-06T12:20:06.968Z,26.10
2022-09-06T12:22:54.603Z,26.43
2022-09-06T12:25:41.500Z,26.21
2022-09-06T12:28:49.941Z,25.83
2022-09-06T12:31:39.754Z,26.49
2022-09-06T12:34:35.321Z,26.29
2022-09-06T12:37:55.056Z,26.32
2022-09-06T12:40:48.113Z,26.56
2022-09-06T12:43:39.259Z,26.14
2022-09-06T12:46:29.926Z,26.11
2022-09-06T12:49:20.947Z,25.64
2022-09-06T12:52:16.288Z,25.56
2022-09-06T12:55:16.077Z,26.02
2022-09-06T12:58:07.669Z,26.44
2022-09-06T13:01:04.698Z,26.26
2022-09-06T13:04:15.961Z,27.33
2022-09-06T13:07:04.725Z,27.10
2022-09-06T13:09:55.649Z,27.38
2022-09-06T13:12:45.849Z,28.17
2022-09-06T13:15:32.933Z,27.01
2022-09-06T13:18:35.581Z,27.37
2022-09-06T13:21:35.441Z,27.74
2022-09-06T13:24:41.378Z,26.65
2022-09-06T13:27:30.354Z,26.23
2022-09-06T13:30:49.514Z,26.36
2022-09-06T13:33:37.877Z,26.40
2022-09-06T13:36:30.746Z,27.11
2022-09-06T13:39:46.677Z,27.00
2022-09-06T13:42:38.153Z,27.34
2022-09-06T13:45:28.385Z,26.60
2022-09-06T13:48:28.722Z,26.41
2022-09-06T13:51:16.291Z,26.66
2022-09-06T13:54:08.428Z,26.10
2022-09-06T13:56:56.123Z,26.11
2022-09-06T13:59:43.148Z,25.75
2022-09-06T14:02:30.229Z,25.72
2022-09-06T14:05:18.025Z,26.05
2022-09-06T14:08:05.169Z,25.13
2022-09-06T14:10:52.494Z,25.09
2022-09-06T14:13:39.751Z,24.80
2022-09-06T14:16:26.879Z,25.25
2022-09-06T14:19:14.675Z,25.21
2022-09-06T14:22:02.245Z,25.36
2022-09-06T14:24:49.641Z,25.37
2022-09-06T14:27:36.785Z,25.39
2022-09-06T14:30:23.725Z,25.46
2022-09-06T14:33:10.642Z,25.86
2022-09-06T14:35:57.692Z,25.67
2022-09-06T14:38:45.956Z,25.87
2022-09-06T14:41:33.041Z,25.52
2022-09-06T14:44:20.104Z,25.57
2022-09-06T14:47:07.029Z,25.36
2022-09-06T14:49:54.024Z,25.58
2022-09-06T14:52:40.945Z,25.78
2022-09-06T14:55:28.201Z,25.87
2022-09-06T14:58:15.687Z,25.71
2022-09-06T15:01:13.184Z,25.92
2022-09-06T15:04:05.249Z,25.72
2022-09-06T15:06:52.456Z,25.52
2022-09-06T15:09:39.643Z,25.45
2022-09-06T15:12:26.578Z,25.22
2022-09-06T15:15:13.605Z,25.30
2022-09-06T15:18:00.527Z,25.55
2022-09-06T15:20:48.184Z,26.71
2022-09-06T15:23:35.157Z,27.54
2022-09-06T15:26:22.108Z,27.15
2022-09-06T15:29:11.820Z,26.43
2022-09-06T15:31:59.683Z,26.80
2022-09-06T15:34:46.666Z,26.96
2022-09-06T15:37:33.585Z,26.24
2022-09-06T15:40:24.482Z,26.17
2022-09-06T15:43:11.416Z,26.11
2022-09-06T15:45:58.457Z,26.30
2022-09-06T15:48:48.509Z,25.85
2022-09-06T15:51:37.168Z,26.04
2022-09-06T15:54:44.437Z,26.21
2022-09-06T15:57:31.427Z,26.01
2022-09-06T16:00:22.027Z,25.30
2022-09-06T16:03:08.942Z,25.76
2022-09-06T16:09:14.361Z,26.64
2022-09-06T16:12:01.449Z,26.01
2022-09-06T16:14:48.420Z,25.50
2022-09-06T16:17:35.388Z,25.41
2022-09-06T16:20:23.268Z,25.04
2022-09-06T16:23:10.186Z,24.75
2022-09-06T16:25:57.287Z,24.49
2022-09-06T16:28:44.768Z,24.67
2022-09-06T16:31:39.135Z,24.70
2022-09-06T16:34:27.516Z,24.41
2022-09-06T16:37:14.476Z,24.64
2022-09-06T16:40:01.879Z,24.11
2022-09-06T16:42:49.093Z,24.41
2022-09-06T16:45:36.064Z,24.41
2022-09-06T16:48:23.142Z,24.39
2022-09-06T16:51:16.412Z,24.73
2022-09-06T16:54:03.517Z,24.48
2022-09-06T16:56:50.574Z,24.95
2022-09-06T16:59:37.674Z,24.73
2022-09-06T17:02:24.974Z,24.77
2022-09-06T17:05:14.253Z,24.29
2022-09-06T17:08:01.472Z,24.65
2022-09-06T17:10:48.507Z,24.67
2022-09-06T17:13:36.337Z,24.26
2022-09-06T17:16:42.895Z,24.26
2022-09-06T17:19:31.349Z,24.37
2022-09-06T17:22:18.312Z,24.27
2022-09-06T17:25:06.193Z,23.93
2022-09-06T17:27:53.122Z,23.61
2022-09-06T17:30:40.339Z,23.64
2022-09-06T17:33:27.852Z,23.66
2022-09-06T17:36:23.807Z,23.61
2022-09-06T17:39:15.576Z,23.65
2022-09-06T17:42:02.489Z,23.64
2022-09-06T17:44:49.431Z,23.66
2022-09-06T17:47:36.789Z,23.22
2022-09-06T17:50:23.898Z,22.95
2022-09-06T17:53:11.169Z,22.82
2022-09-06T17:55:58.112Z,22.84
2022-09-06T17:59:01.689Z,22.65
2022-09-06T18:01:48.831Z,22.63
2022-09-06T18:04:35.895Z,22.85
2022-09-06T18:07:22.899Z,22.90
2022-09-06T18:10:10.733Z,22.64
2022-09-06T18:12:58.206Z,22.39
2022-09-06T18:15:45.225Z,22.58
2022-09-06T18:18:33.573Z,22.69
2022-09-06T18:21:21.032Z,22.70
2022-09-06T18:24:09.416Z,22.62
2022-09-06T18:26:56.350Z,22.00
2022-09-06T18:29:43.610Z,21.73
2022-09-06T18:32:30.978Z,21.29
2022-09-06T18:35:17.998Z,21.05
2022-09-06T18:38:05.149Z,21.56
2022-09-06T18:41:00.513Z,21.65
2022-09-06T18:43:47.463Z,21.67
2022-09-06T18:46:38.081Z,21.78
2022-09-06T18:49:25.163Z,21.58
2022-09-06T18:52:12.155Z,21.38
2022-09-06T18:54:59.241Z,21.34
2022-09-06T18:57:46.193Z,21.37
2022-09-06T19:00:33.401Z,21.03
2022-09-06T19:03:20.325Z,20.72
2022-09-06T19:06:12.163Z,20.59
2022-09-06T19:09:06.085Z,20.76
2022-09-06T19:11:53.490Z,20.82
2022-09-06T19:14:40.461Z,20.90
2022-09-06T19:17:27.657Z,21.02
2022-09-06T19:20:14.673Z,21.26
2022-09-06T19:23:02.925Z,21.10
2022-09-06T19:26:07.136Z,20.14
2022-09-06T19:28:59.833Z,19.40
2022-09-06T19:31:47.432Z,19.74
2022-09-06T19:34:34.880Z,19.72
2022-09-06T19:37:23.864Z,19.21
2022-09-06T19:40:11.235Z,19.52
2022-09-06T19:42:58.323Z,19.37
2022-09-06T19:45:45.299Z,19.30
2022-09-06T19:48:33.294Z,18.98
2022-09-06T19:51:20.728Z,19.55
2022-09-06T19:54:07.737Z,19.80
2022-09-06T19:56:54.680Z,20.00
2022-09-06T19:59:41.686Z,19.70
2022-09-06T20:02:28.644Z,19.44
2022-09-06T20:05:17.008Z,19.16
2022-09-06T20:08:04.199Z,19.41
2022-09-06T20:10:53.044Z,19.47
2022-09-06T20:13:40.532Z,19.96
2022-09-06T20:16:28.423Z,20.19
2022-09-06T20:19:15.928Z,19.97
2022-09-06T20:22:03.053Z,19.36
2022-09-06T20:24:50.137Z,19.33
2022-09-06T20:27:39.314Z,19.29
2022-09-06T20:30:30.215Z,19.24
2022-09-06T20:33:17.427Z,18.98
2022-09-06T20:36:07.432Z,18.52
2022-09-06T20:38:54.472Z,18.73
2022-09-06T20:41:41.525Z,18.82
2022-09-06T20:44:28.606Z,18.92
2022-09-06T20:47:15.656Z,18.68
2022-09-06T20:50:02.693Z,18.65
2022-09-06T20:52:49.660Z,18.98
2022-09-06T20:55:36.925Z,18.48
2022-09-06T20:58:24.359Z,17.66
2022-09-06T21:01:16.643Z,17.78
2022-09-06T21:04:06.678Z,17.70
2022-09-06T21:06:53.653Z,17.50
2022-09-06T21:09:40.669Z,17.24
2022-09-06T21:12:27.693Z,17.96
2022-09-06T21:15:15.655Z,18.45
2022-09-06T21:18:03.715Z,18.44
2022-09-06T21:21:02.379Z,18.25
2022-09-06T21:23:49.440Z,17.99
2022-09-06T21:26:36.856Z,18.03
2022-09-06T21:29:23.892Z,17.56
2022-09-06T21:32:10.807Z,17.86
2022-09-06T21:34:57.754Z,17.82
2022-09-06T21:37:44.663Z,17.88
2022-09-06T21:40:34.628Z,17.47
2022-09-06T21:43:21.674Z,17.58
2022-09-06T21:46:12.610Z,17.91
2022-09-06T21:49:04.485Z,18.25
2022-09-06T21:51:52.297Z,18.43
2022-09-06T21:54:39.446Z,18.46
2022-09-06T21:57:26.459Z,18.41
2022-09-06T22:00:15.420Z,18.41
2022-09-06T22:03:03.118Z,18.49
2022-09-06T22:05:50.307Z,18.76
2022-09-06T22:08:38.301Z,18.71
2022-09-06T22:11:28.290Z,18.71
2022-09-06T22:14:15.786Z,18.63
2022-09-06T22:17:03.157Z,18.67
2022-09-06T22:19:50.677Z,18.89
2022-09-06T22:22:38.554Z,18.77
2022-09-06T22:25:25.847Z,18.58
2022-09-06T22:28:13.164Z,18.77
2022-09-06T22:31:00.863Z,18.77
2022-09-06T22:33:48.093Z,18.98
2022-09-06T22:36:35.696Z,19.00
2022-09-06T22:39:23.261Z,18.63
2022-09-06T22:42:10.249Z,18.42
2022-09-06T22:44:57.193Z,18.05
2022-09-06T22:47:44.387Z,18.26
2022-09-06T22:50:31.518Z,18.12
2022-09-06T22:53:19.098Z,18.35
2022-09-06T22:56:06.798Z,18.54
2022-09-06T22:58:54.210Z,18.84
2022-09-06T23:01:41.460Z,18.57
2022-09-06T23:04:28.529Z,18.72
2022-09-06T23:07:15.489Z,18.56
2022-09-06T23:10:02.640Z,18.08
2022-09-06T23:12:52.476Z,17.59
2022-09-06T23:15:41.181Z,17.58
2022-09-06T23:18:28.387Z,17.60
2022-09-06T23:21:20.977Z,18.07
2022-09-06T23:24:08.033Z,17.86
2022-09-06T23:26:55.588Z,18.26
2022-09-06T23:29:44.003Z,18.50
2022-09-06T23:32:34.046Z,18.55
2022-09-06T23:35:21.549Z,18.66
2022-09-06T23:38:08.529Z,18.06
2022-09-06T23:40:55.539Z,18.11
2022-09-06T23:43:43.805Z,18.14
2022-09-06T23:46:31.872Z,18.00
2022-09-06T23:49:19.153Z,17.71
2022-09-06T23:52:06.205Z,17.80
2022-09-06T23:54:53.215Z,18.20
2022-09-06T23:57:40.160Z,18.62
